Portchester, New York
Current Conditions -  °F | °C
As of 9:56 AM on Thursday 23 Oct 2014 (Local Time) from KHPN Reporting Station
Broken Clouds Broken Clouds  
Wind Chill: 42°   Ceiling: 1400
Heat Index: 49°   Visibility: 10mi
Dew Point: 45°   Wind: 21mph
Humidity: 86%   Direction: 340°NNW
Pressure: 29.67"   Gusts: 29mph
Location:  41.0136°N, 73.6759°W
Report Text: KHPN 231356Z 34018G25KT 10SM FEW010 BKN014 BKN110 09/07 A2967 RMK AO2 PK WND 34029/1321 SLP048 T00940072
Loading
Personal Weather Stations






























Interactive Weather Map
Tropical Storm Tracking
New forecast layout! Learn more

10-Day Weather Forecast

Advertisements
Track Severe Weather on mobile